MROC/SJO METAR and TAF weather

Enter ICAO airport designator
Station Type Date Time Source
MROC METAR 2024/06/16 08:00 UTC NOAA

MROC 160800Z VRB02KT 9999 BCFG NSC 20/19 A3002 NOSIG


Station Type Date Time Source
MROC Decoded METAR 2024/06/16 08:00 UTC NOAA

Juan Santamaria, Costa Rica (MROC) 10-00N 084-13W 939M
Jun 16, 2024 - 04:00 AM EDT / 2024.06.16 0800 UTC
Wind: Variable at 2 MPH (2 KT):0
Visibility: greater than 7 mile(s):0
Weather: patches of fog
Temperature: 68 F (20 C)
Dew Point: 66 F (19 C)
Relative Humidity: 93%
Pressure (altimeter): 30.02 in. Hg (1016 hPa)
ob: MROC 160800Z VRB02KT 9999 BCFG NSC 20/19 A3002 NOSIG
cycle: 8

Station Type Date Time Source
MROC TAF 2024/06/16 06:21 UTC NOAA